sensor_id;sensor_type;location;lat;lon;timestamp;pressure;altitude;pressure_sealevel;temperature;humidity
25130;BME280;13308;50.860;13.664;2023-04-09T04:45:14;97615.59;;;1.50;100.00
25130;BME280;13308;50.860;13.664;2023-04-09T04:47:44;97615.38;;;1.55;100.00
25130;BME280;13308;50.860;13.664;2023-04-09T04:50:10;97611.06;;;1.54;100.00
25130;BME280;13308;50.860;13.664;2023-04-09T04:52:49;97616.13;;;1.67;100.00
25130;BME280;13308;50.860;13.664;2023-04-09T04:55:15;97616.47;;;1.66;100.00
25130;BME280;13308;50.860;13.664;2023-04-09T04:57:41;97616.47;;;1.78;100.00
25130;BME280;13308;50.860;13.664;2023-04-09T05:00:07;97617.81;;;1.84;100.00
25130;BME280;13308;50.860;13.664;2023-04-09T05:02:34;97616.72;;;1.73;100.00
25130;BME280;13308;50.860;13.664;2023-04-09T05:05:17;97631.31;;;1.80;100.00
25130;BME280;13308;50.860;13.664;2023-04-09T05:07:48;97622.22;;;2.00;100.00
25130;BME280;13308;50.860;13.664;2023-04-09T05:10:13;97634.13;;;1.84;100.00
25130;BME280;13308;50.860;13.664;2023-04-09T05:12:41;97626.44;;;1.86;100.00
25130;BME280;13308;50.860;13.664;2023-04-09T05:15:07;97625.19;;;1.95;100.00
25130;BME280;13308;50.860;13.664;2023-04-09T05:17:35;97627.09;;;1.95;100.00
25130;BME280;13308;50.860;13.664;2023-04-09T05:20:00;97625.84;;;1.92;100.00
25130;BME280;13308;50.860;13.664;2023-04-09T05:22:34;97622.78;;;1.94;100.00
25130;BME280;13308;50.860;13.664;2023-04-09T05:25:00;97624.38;;;1.95;100.00
25130;BME280;13308;50.860;13.664;2023-04-09T05:27:26;97618.69;;;2.00;100.00
25130;BME280;13308;50.860;13.664;2023-04-09T05:29:57;97618.69;;;2.00;100.00
25130;BME280;13308;50.860;13.664;2023-04-09T05:32:22;97629.09;;;2.22;100.00
25130;BME280;13308;50.860;13.664;2023-04-09T05:34:48;97633.94;;;2.28;100.00
25130;BME280;13308;50.860;13.664;2023-04-09T05:37:14;97633.34;;;2.35;100.00
25130;BME280;13308;50.860;13.664;2023-04-09T05:39:40;97635.84;;;2.40;100.00
25130;BME280;13308;50.860;13.664;2023-04-09T05:42:06;97643.28;;;2.43;100.00
25130;BME280;13308;50.860;13.664;2023-04-09T05:44:47;97646.75;;;2.83;100.00
25130;BME280;13308;50.860;13.664;2023-04-09T05:47:17;97658.25;;;2.76;100.00
25130;BME280;13308;50.860;13.664;2023-04-09T05:49:56;97657.81;;;2.74;100.00
25130;BME280;13308;50.860;13.664;2023-04-09T05:52:21;97655.53;;;3.04;100.00
25130;BME280;13308;50.860;13.664;2023-04-09T05:54:48;97650.56;;;2.94;100.00
25130;BME280;13308;50.860;13.664;2023-04-09T05:57:19;97648.06;;;3.16;100.00
25130;BME280;13308;50.860;13.664;2023-04-09T05:59:52;97648.84;;;3.79;100.00
25130;BME280;13308;50.860;13.664;2023-04-09T06:02:17;97646.25;;;4.36;100.00
25130;BME280;13308;50.860;13.664;2023-04-09T06:04:42;97652.44;;;4.52;100.00
25130;BME280;13308;50.860;13.664;2023-04-09T06:07:08;97649.13;;;4.43;100.00
25130;BME280;13308;50.860;13.664;2023-04-09T06:09:34;97636.75;;;4.30;100.00
25130;BME280;13308;50.860;13.664;2023-04-09T06:12:00;97636.38;;;4.31;100.00
25130;BME280;13308;50.860;13.664;2023-04-09T06:14:26;97642.09;;;4.61;100.00
25130;BME280;13308;50.860;13.664;2023-04-09T06:16:51;97638.16;;;5.00;100.00
25130;BME280;13308;50.860;13.664;2023-04-09T06:19:17;97639.16;;;5.11;100.00
25130;BME280;13308;50.860;13.664;2023-04-09T06:21:43;97641.59;;;5.16;100.00
25130;BME280;13308;50.860;13.664;2023-04-09T06:24:08;97642.94;;;5.25;100.00
25130;BME280;13308;50.860;13.664;2023-04-09T06:26:33;97647.06;;;5.16;100.00
25130;BME280;13308;50.860;13.664;2023-04-09T06:28:59;97647.16;;;5.42;100.00
25130;BME280;13308;50.860;13.664;2023-04-09T06:31:24;97635.59;;;5.52;100.00
25130;BME280;13308;50.860;13.664;2023-04-09T06:33:49;97642.22;;;5.51;100.00
25130;BME280;13308;50.860;13.664;2023-04-09T06:36:15;97646.13;;;5.50;100.00
25130;BME280;13308;50.860;13.664;2023-04-09T06:38:40;97639.97;;;5.56;100.00
25130;BME280;13308;50.860;13.664;2023-04-09T06:41:05;97641.38;;;5.69;100.00
25130;BME280;13308;50.860;13.664;2023-04-09T06:43:32;97644.09;;;5.92;100.00
25130;BME280;13308;50.860;13.664;2023-04-09T06:45:57;97650.59;;;6.06;100.00
25130;BME280;13308;50.860;13.664;2023-04-09T06:48:23;97659.59;;;6.07;100.00
25130;BME280;13308;50.860;13.664;2023-04-09T06:50:48;97651.91;;;6.16;100.00
25130;BME280;13308;50.860;13.664;2023-04-09T06:53:14;97662.00;;;6.38;100.00
25130;BME280;13308;50.860;13.664;2023-04-09T06:55:39;97654.34;;;6.50;100.00
25130;BME280;13308;50.860;13.664;2023-04-09T06:58:05;97654.31;;;6.76;100.00
25130;BME280;13308;50.860;13.664;2023-04-09T07:00:30;97657.75;;;7.03;100.00
25130;BME280;13308;50.860;13.664;2023-04-09T07:02:56;97655.63;;;7.26;100.00
25130;BME280;13308;50.860;13.664;2023-04-09T07:05:21;97660.47;;;7.36;100.00
25130;BME280;13308;50.860;13.664;2023-04-09T07:07:46;97655.91;;;7.50;100.00
25130;BME280;13308;50.860;13.664;2023-04-09T07:10:12;97655.72;;;7.76;100.00
25130;BME280;13308;50.860;13.664;2023-04-09T07:12:37;97661.38;;;7.94;100.00
25130;BME280;13308;50.860;13.664;2023-04-09T07:15:04;97672.47;;;8.61;100.00
25130;BME280;13308;50.860;13.664;2023-04-09T07:17:31;97668.34;;;9.02;98.58
25130;BME280;13308;50.860;13.664;2023-04-09T07:19:56;97671.66;;;9.53;93.22
25130;BME280;13308;50.860;13.664;2023-04-09T07:22:24;97679.56;;;10.56;90.04
25130;BME280;13308;50.860;13.664;2023-04-09T07:24:49;97676.63;;;11.09;84.99
25130;BME280;13308;50.860;13.664;2023-04-09T07:27:25;97684.63;;;12.26;81.41
25130;BME280;13308;50.860;13.664;2023-04-09T07:29:55;97687.81;;;13.02;75.51
25130;BME280;13308;50.860;13.664;2023-04-09T07:32:21;97692.22;;;13.33;67.98
25130;BME280;13308;50.860;13.664;2023-04-09T07:34:47;97696.69;;;13.80;66.21
25130;BME280;13308;50.860;13.664;2023-04-09T07:37:12;97695.03;;;14.39;64.69
25130;BME280;13308;50.860;13.664;2023-04-09T07:39:38;97692.09;;;14.50;63.12
25130;BME280;13308;50.860;13.664;2023-04-09T07:42:04;97690.06;;;14.27;60.76
25130;BME280;13308;50.860;13.664;2023-04-09T07:44:33;97690.69;;;15.23;59.96
25130;BME280;13308;50.860;13.664;2023-04-09T07:47:00;97698.28;;;15.42;58.21
25130;BME280;13308;50.860;13.664;2023-04-09T07:49:25;97700.16;;;16.00;57.94
25130;BME280;13308;50.860;13.664;2023-04-09T07:51:50;97705.84;;;15.42;55.53
25130;BME280;13308;50.860;13.664;2023-04-09T07:54:15;97707.25;;;16.05;55.70
25130;BME280;13308;50.860;13.664;2023-04-09T07:56:41;97701.50;;;15.76;55.20
25130;BME280;13308;50.860;13.664;2023-04-09T07:59:06;97697.44;;;15.81;56.03
25130;BME280;13308;50.860;13.664;2023-04-09T08:01:31;97705.91;;;15.93;54.58
25130;BME280;13308;50.860;13.664;2023-04-09T08:03:57;97692.81;;;15.74;55.08
25130;BME280;13308;50.860;13.664;2023-04-09T08:06:22;97695.84;;;15.80;54.85
25130;BME280;13308;50.860;13.664;2023-04-09T08:08:47;97700.16;;;16.00;56.32
25130;BME280;13308;50.860;13.664;2023-04-09T08:11:13;97703.19;;;16.57;55.23
25130;BME280;13308;50.860;13.664;2023-04-09T08:13:38;97703.66;;;16.40;54.64
25130;BME280;13308;50.860;13.664;2023-04-09T08:16:04;97697.56;;;15.38;57.01
25130;BME280;13308;50.860;13.664;2023-04-09T08:18:30;97709.19;;;15.88;55.42
25130;BME280;13308;50.860;13.664;2023-04-09T08:20:56;97707.41;;;15.43;56.04
25130;BME280;13308;50.860;13.664;2023-04-09T08:23:21;97709.44;;;15.58;57.60
25130;BME280;13308;50.860;13.664;2023-04-09T08:25:46;97707.88;;;15.57;57.74
25130;BME280;13308;50.860;13.664;2023-04-09T08:28:12;97704.34;;;15.57;56.82
25130;BME280;13308;50.860;13.664;2023-04-09T08:30:37;97706.22;;;15.79;57.34
25130;BME280;13308;50.860;13.664;2023-04-09T08:33:02;97705.09;;;15.18;57.05
25130;BME280;13308;50.860;13.664;2023-04-09T08:35:31;97714.09;;;15.65;56.50
25130;BME280;13308;50.860;13.664;2023-04-09T08:37:58;97706.59;;;15.23;56.98
25130;BME280;13308;50.860;13.664;2023-04-09T08:40:23;97712.38;;;15.51;56.37
25130;BME280;13308;50.860;13.664;2023-04-09T08:42:53;97710.50;;;15.64;54.99
25130;BME280;13308;50.860;13.664;2023-04-09T08:45:21;97715.94;;;15.71;55.64
25130;BME280;13308;50.860;13.664;2023-04-09T08:47:48;97704.50;;;15.85;56.88
25130;BME280;13308;50.860;13.664;2023-04-09T08:50:14;97696.91;;;15.70;55.29
25130;BME280;13308;50.860;13.664;2023-04-09T08:52:40;97707.47;;;15.59;55.09
25130;BME280;13308;50.860;13.664;2023-04-09T08:55:07;97704.94;;;15.64;55.53
25130;BME280;13308;50.860;13.664;2023-04-09T08:57:39;97712.25;;;15.94;55.68
25130;BME280;13308;50.860;13.664;2023-04-09T09:00:05;97708.22;;;16.14;56.44
25130;BME280;13308;50.860;13.664;2023-04-09T09:02:31;97711.38;;;15.97;54.75
25130;BME280;13308;50.860;13.664;2023-04-09T09:04:56;97718.47;;;16.33;54.67
25130;BME280;13308;50.860;13.664;2023-04-09T09:07:27;97714.41;;;16.22;54.78
25130;BME280;13308;50.860;13.664;2023-04-09T09:09:55;97710.63;;;16.12;56.28
25130;BME280;13308;50.860;13.664;2023-04-09T09:12:32;97717.47;;;16.43;55.15
25130;BME280;13308;50.860;13.664;2023-04-09T09:14:58;97718.66;;;16.26;56.34
25130;BME280;13308;50.860;13.664;2023-04-09T09:17:23;97719.50;;;16.07;56.92
25130;BME280;13308;50.860;13.664;2023-04-09T09:19:49;97722.69;;;16.57;54.63
25130;BME280;13308;50.860;13.664;2023-04-09T09:22:15;97722.50;;;16.64;56.52
25130;BME280;13308;50.860;13.664;2023-04-09T09:24:47;97720.91;;;16.95;56.32
25130;BME280;13308;50.860;13.664;2023-04-09T09:27:30;97723.81;;;16.76;55.71
25130;BME280;13308;50.860;13.664;2023-04-09T09:29:57;97720.25;;;16.75;55.13
25130;BME280;13308;50.860;13.664;2023-04-09T09:32:23;97731.19;;;16.98;55.40
25130;BME280;13308;50.860;13.664;2023-04-09T09:35:03;97717.09;;;16.89;55.21
25130;BME280;13308;50.860;13.664;2023-04-09T09:37:30;97718.16;;;16.79;56.96
25130;BME280;13308;50.860;13.664;2023-04-09T09:39:56;97720.09;;;16.66;57.60
25130;BME280;13308;50.860;13.664;2023-04-09T09:42:22;97709.28;;;16.84;55.83
25130;BME280;13308;50.860;13.664;2023-04-09T09:44:48;97715.09;;;17.18;56.61
25130;BME280;13308;50.860;13.664;2023-04-09T09:47:19;97699.59;;;17.17;55.71
25130;BME280;13308;50.860;13.664;2023-04-09T09:49:49;97703.84;;;16.93;56.64
25130;BME280;13308;50.860;13.664;2023-04-09T09:52:17;97710.81;;;16.21;57.81
25130;BME280;13308;50.860;13.664;2023-04-09T09:54:47;97700.91;;;15.49;57.73
25130;BME280;13308;50.860;13.664;2023-04-09T09:57:18;97700.22;;;15.22;58.61
25130;BME280;13308;50.860;13.664;2023-04-09T09:59:50;97691.59;;;14.97;58.71
25130;BME280;13308;50.860;13.664;2023-04-09T10:02:19;97683.34;;;14.94;58.77
25130;BME280;13308;50.860;13.664;2023-04-09T10:04:44;97685.47;;;14.63;60.20
25130;BME280;13308;50.860;13.664;2023-04-09T10:07:12;97685.59;;;14.56;60.54
25130;BME280;13308;50.860;13.664;2023-04-09T10:09:44;97685.00;;;14.45;62.00
25130;BME280;13308;50.860;13.664;2023-04-09T10:12:10;97688.25;;;14.63;60.92
25130;BME280;13308;50.860;13.664;2023-04-09T10:14:37;97677.16;;;14.63;63.18
25130;BME280;13308;50.860;13.664;2023-04-09T10:17:03;97678.97;;;14.73;63.04
25130;BME280;13308;50.860;13.664;2023-04-09T10:19:30;97680.66;;;14.67;62.84
25130;BME280;13308;50.860;13.664;2023-04-09T10:22:19;97678.19;;;14.73;60.83
25130;BME280;13308;50.860;13.664;2023-04-09T10:25:30;97674.72;;;14.88;60.50
25130;BME280;13308;50.860;13.664;2023-04-09T10:28:14;97684.28;;;15.26;62.55
25130;BME280;13308;50.860;13.664;2023-04-09T10:30:40;97685.88;;;15.82;59.30
25130;BME280;13308;50.860;13.664;2023-04-09T10:35:34;97673.69;;;15.76;56.34
25130;BME280;13308;50.860;13.664;2023-04-09T10:38:00;97675.56;;;15.99;58.56
25130;BME280;13308;50.860;13.664;2023-04-09T10:40:27;97681.13;;;16.15;57.47
25130;BME280;13308;50.860;13.664;2023-04-09T10:46:04;97674.13;;;16.42;56.04
25130;BME280;13308;50.860;13.664;2023-04-09T10:48:32;97667.19;;;15.83;57.16
25130;BME280;13308;50.860;13.664;2023-04-09T10:50:57;97669.84;;;15.70;57.90
25130;BME280;13308;50.860;13.664;2023-04-09T10:53:24;97666.72;;;15.68;57.39
25130;BME280;13308;50.860;13.664;2023-04-09T10:55:51;97662.63;;;15.37;59.26
25130;BME280;13308;50.860;13.664;2023-04-09T10:58:17;97665.63;;;15.07;60.54
25130;BME280;13308;50.860;13.664;2023-04-09T11:00:46;97660.47;;;14.86;57.85
25130;BME280;13308;50.860;13.664;2023-04-09T11:03:22;97657.97;;;14.72;60.08
25130;BME280;13308;50.860;13.664;2023-04-09T11:05:53;97663.78;;;14.35;62.53
25130;BME280;13308;50.860;13.664;2023-04-09T11:08:20;97664.25;;;14.53;61.19
25130;BME280;13308;50.860;13.664;2023-04-09T11:10:46;97670.16;;;14.32;63.29
25130;BME280;13308;50.860;13.664;2023-04-09T11:13:13;97663.72;;;14.39;60.27
25130;BME280;13308;50.860;13.664;2023-04-09T11:15:39;97664.84;;;14.64;59.47
25130;BME280;13308;50.860;13.664;2023-04-09T11:18:04;97666.56;;;14.58;60.89
25130;BME280;13308;50.860;13.664;2023-04-09T11:20:34;97661.47;;;14.76;62.47
25130;BME280;13308;50.860;13.664;2023-04-09T11:22:59;97664.41;;;15.08;60.39
25130;BME280;13308;50.860;13.664;2023-04-09T11:25:30;97661.09;;;15.36;61.58
25130;BME280;13308;50.860;13.664;2023-04-09T11:27:56;97662.09;;;15.62;59.88
25130;BME280;13308;50.860;13.664;2023-04-09T11:30:21;97666.47;;;15.79;60.77
25130;BME280;13308;50.860;13.664;2023-04-09T11:32:47;97669.41;;;16.23;59.94
25130;BME280;13308;50.860;13.664;2023-04-09T11:35:14;97673.25;;;16.61;57.03
25130;BME280;13308;50.860;13.664;2023-04-09T11:37:42;97670.72;;;16.67;57.17
25130;BME280;13308;50.860;13.664;2023-04-09T11:40:24;97666.47;;;16.46;57.29
25130;BME280;13308;50.860;13.664;2023-04-09T11:42:52;97660.34;;;16.35;58.89
25130;BME280;13308;50.860;13.664;2023-04-09T11:45:19;97667.50;;;16.52;56.01
25130;BME280;13308;50.860;13.664;2023-04-09T11:47:45;97676.03;;;16.13;57.88
25130;BME280;13308;50.860;13.664;2023-04-09T11:50:12;97666.09;;;15.96;58.04
25130;BME280;13308;50.860;13.664;2023-04-09T11:52:38;97674.22;;;15.87;58.09
25130;BME280;13308;50.860;13.664;2023-04-09T11:55:06;97669.09;;;15.70;56.95
25130;BME280;13308;50.860;13.664;2023-04-09T11:57:46;97668.03;;;15.80;59.00
25130;BME280;13308;50.860;13.664;2023-04-09T12:00:16;97670.16;;;15.92;59.40
25130;BME280;13308;50.860;13.664;2023-04-09T12:02:43;97663.69;;;15.79;60.41
25130;BME280;13308;50.860;13.664;2023-04-09T12:05:11;97673.56;;;15.83;59.25
25130;BME280;13308;50.860;13.664;2023-04-09T12:07:38;97674.94;;;15.91;58.78
25130;BME280;13308;50.860;13.664;2023-04-09T12:10:05;97667.69;;;16.13;57.45
25130;BME280;13308;50.860;13.664;2023-04-09T12:12:41;97670.44;;;16.77;58.03
25130;BME280;13308;50.860;13.664;2023-04-09T12:15:25;97675.53;;;16.66;55.96
25130;BME280;13308;50.860;13.664;2023-04-09T12:17:53;97673.47;;;17.11;56.48
25130;BME280;13308;50.860;13.664;2023-04-09T12:20:45;97671.66;;;16.60;57.11
25130;BME280;13308;50.860;13.664;2023-04-09T12:23:12;97677.59;;;16.46;56.26
25130;BME280;13308;50.860;13.664;2023-04-09T12:25:39;97673.75;;;16.08;55.82
25130;BME280;13308;50.860;13.664;2023-04-09T12:28:10;97682.94;;;15.89;56.94
25130;BME280;13308;50.860;13.664;2023-04-09T12:30:35;97675.06;;;15.68;56.42
25130;BME280;13308;50.860;13.664;2023-04-09T12:33:02;97674.72;;;15.66;57.18
25130;BME280;13308;50.860;13.664;2023-04-09T12:35:27;97679.41;;;15.34;58.27
25130;BME280;13308;50.860;13.664;2023-04-09T12:37:53;97679.75;;;15.36;57.11
25130;BME280;13308;50.860;13.664;2023-04-09T12:40:19;97676.38;;;15.44;59.67
25130;BME280;13308;50.860;13.664;2023-04-09T12:42:45;97678.09;;;15.58;57.73
25130;BME280;13308;50.860;13.664;2023-04-09T12:45:16;97676.72;;;15.46;56.45
25130;BME280;13308;50.860;13.664;2023-04-09T12:47:41;97670.22;;;15.72;56.04
25130;BME280;13308;50.860;13.664;2023-04-09T12:50:08;97666.41;;;15.82;55.68
25130;BME280;13308;50.860;13.664;2023-04-09T12:52:34;97668.66;;;15.71;55.93
25130;BME280;13308;50.860;13.664;2023-04-09T12:55:00;97666.31;;;15.50;55.30
25130;BME280;13308;50.860;13.664;2023-04-09T12:57:26;97661.31;;;15.61;56.36
25130;BME280;13308;50.860;13.664;2023-04-09T12:59:52;97667.22;;;15.63;56.56
25130;BME280;13308;50.860;13.664;2023-04-09T13:02:18;97667.19;;;15.47;52.79
25130;BME280;13308;50.860;13.664;2023-04-09T13:04:44;97657.28;;;15.27;54.98
25130;BME280;13308;50.860;13.664;2023-04-09T13:07:11;97656.63;;;15.19;54.06
25130;BME280;13308;50.860;13.664;2023-04-09T13:09:36;97660.25;;;15.16;57.67
25130;BME280;13308;50.860;13.664;2023-04-09T13:12:02;97660.09;;;15.23;57.65
25130;BME280;13308;50.860;13.664;2023-04-09T13:14:27;97647.56;;;14.96;57.36
25130;BME280;13308;50.860;13.664;2023-04-09T13:16:53;97649.78;;;15.04;58.41
25130;BME280;13308;50.860;13.664;2023-04-09T13:19:18;97646.06;;;14.91;56.43
25130;BME280;13308;50.860;13.664;2023-04-09T13:21:44;97642.31;;;15.01;54.79
25130;BME280;13308;50.860;13.664;2023-04-09T13:24:09;97643.94;;;14.79;55.51
25130;BME280;13308;50.860;13.664;2023-04-09T13:26:35;97635.84;;;14.88;56.08
25130;BME280;13308;50.860;13.664;2023-04-09T13:29:00;97638.09;;;14.93;56.68
25130;BME280;13308;50.860;13.664;2023-04-09T13:31:26;97628.25;;;14.69;54.82
25130;BME280;13308;50.860;13.664;2023-04-09T13:33:51;97620.63;;;14.73;54.68
25130;BME280;13308;50.860;13.664;2023-04-09T13:36:17;97630.34;;;14.42;55.85
25130;BME280;13308;50.860;13.664;2023-04-09T13:38:42;97630.53;;;14.74;56.46
25130;BME280;13308;50.860;13.664;2023-04-09T13:41:07;97630.16;;;14.53;54.03
25130;BME280;13308;50.860;13.664;2023-04-09T13:43:32;97628.19;;;14.73;53.72
25130;BME280;13308;50.860;13.664;2023-04-09T13:45:58;97638.97;;;14.90;54.06
25130;BME280;13308;50.860;13.664;2023-04-09T13:48:23;97624.50;;;14.99;54.85
25130;BME280;13308;50.860;13.664;2023-04-09T13:50:49;97620.22;;;15.14;54.96
25130;BME280;13308;50.860;13.664;2023-04-09T13:53:14;97625.16;;;15.61;53.58
25130;BME280;13308;50.860;13.664;2023-04-09T13:55:41;97624.81;;;15.59;53.91
25130;BME280;13308;50.860;13.664;2023-04-09T13:58:06;97616.50;;;15.75;53.02
25130;BME280;13308;50.860;13.664;2023-04-09T14:00:31;97617.00;;;15.54;53.91
25130;BME280;13308;50.860;13.664;2023-04-09T14:02:57;97622.13;;;15.72;54.42
25130;BME280;13308;50.860;13.664;2023-04-09T14:05:22;97619.88;;;15.67;55.86
25130;BME280;13308;50.860;13.664;2023-04-09T14:07:47;97619.78;;;15.70;55.28
25130;BME280;13308;50.860;13.664;2023-04-09T14:10:13;97620.06;;;15.76;54.26
25130;BME280;13308;50.860;13.664;2023-04-09T14:12:38;97617.91;;;15.83;54.87
25130;BME280;13308;50.860;13.664;2023-04-09T14:15:04;97621.88;;;15.66;54.90
25130;BME280;13308;50.860;13.664;2023-04-09T14:17:29;97612.47;;;15.76;56.47
25130;BME280;13308;50.860;13.664;2023-04-09T14:19:55;97607.69;;;15.45;58.15
25130;BME280;13308;50.860;13.664;2023-04-09T14:22:23;97622.47;;;15.58;55.05
25130;BME280;13308;50.860;13.664;2023-04-09T14:24:48;97616.41;;;15.79;54.24
25130;BME280;13308;50.860;13.664;2023-04-09T14:27:14;97615.38;;;16.21;52.18
25130;BME280;13308;50.860;13.664;2023-04-09T14:29:39;97619.22;;;16.87;52.98
25130;BME280;13308;50.860;13.664;2023-04-09T14:32:05;97623.88;;;17.72;52.20
25130;BME280;13308;50.860;13.664;2023-04-09T14:34:31;97632.38;;;18.78;48.51
25130;BME280;13308;50.860;13.664;2023-04-09T14:36:57;97638.59;;;21.22;47.18
25130;BME280;13308;50.860;13.664;2023-04-09T14:39:22;97633.09;;;21.54;45.21
25130;BME280;13308;50.860;13.664;2023-04-09T14:41:47;97635.78;;;22.50;43.91
25130;BME280;13308;50.860;13.664;2023-04-09T14:44:12;97633.31;;;20.97;43.14
25130;BME280;13308;50.860;13.664;2023-04-09T14:46:38;97622.25;;;19.57;45.25
25130;BME280;13308;50.860;13.664;2023-04-09T14:49:03;97624.47;;;20.01;45.57
25130;BME280;13308;50.860;13.664;2023-04-09T14:51:28;97617.84;;;20.08;46.38
25130;BME280;13308;50.860;13.664;2023-04-09T14:53:57;97621.91;;;20.82;44.65
25130;BME280;13308;50.860;13.664;2023-04-09T14:56:22;97630.75;;;21.53;42.16
25130;BME280;13308;50.860;13.664;2023-04-09T14:58:49;97630.94;;;21.49;41.42
25130;BME280;13308;50.860;13.664;2023-04-09T15:01:15;97625.47;;;21.46;42.73
25130;BME280;13308;50.860;13.664;2023-04-09T15:03:40;97625.47;;;21.73;42.08
25130;BME280;13308;50.860;13.664;2023-04-09T15:06:06;97621.72;;;21.58;41.99
25130;BME280;13308;50.860;13.664;2023-04-09T15:08:31;97625.44;;;21.64;43.20
25130;BME280;13308;50.860;13.664;2023-04-09T15:10:57;97615.41;;;21.21;42.83
25130;BME280;13308;50.860;13.664;2023-04-09T15:13:22;97619.47;;;22.21;41.81
25130;BME280;13308;50.860;13.664;2023-04-09T15:15:48;97626.38;;;21.79;42.19
25130;BME280;13308;50.860;13.664;2023-04-09T15:18:13;97623.41;;;21.73;42.60
25130;BME280;13308;50.860;13.664;2023-04-09T15:20:39;97622.09;;;21.92;43.11
25130;BME280;13308;50.860;13.664;2023-04-09T15:23:04;97616.91;;;22.09;41.70
25130;BME280;13308;50.860;13.664;2023-04-09T15:25:30;97612.66;;;21.54;41.32
25130;BME280;13308;50.860;13.664;2023-04-09T15:27:55;97611.47;;;20.83;42.34
25130;BME280;13308;50.860;13.664;2023-04-09T15:30:20;97602.41;;;21.24;43.29
25130;BME280;13308;50.860;13.664;2023-04-09T15:32:46;97612.69;;;21.36;42.44
25130;BME280;13308;50.860;13.664;2023-04-09T15:35:11;97603.06;;;21.10;42.49
25130;BME280;13308;50.860;13.664;2023-04-09T15:37:40;97595.28;;;20.78;44.53
25130;BME280;13308;50.860;13.664;2023-04-09T15:40:06;97602.41;;;20.70;43.98
25130;BME280;13308;50.860;13.664;2023-04-09T15:42:31;97598.91;;;20.21;44.30
25130;BME280;13308;50.860;13.664;2023-04-09T15:44:57;97598.06;;;19.20;45.05
25130;BME280;13308;50.860;13.664;2023-04-09T15:47:22;97600.53;;;18.75;45.68
25130;BME280;13308;50.860;13.664;2023-04-09T15:49:47;97592.97;;;18.63;45.93
25130;BME280;13308;50.860;13.664;2023-04-09T15:52:12;97600.59;;;18.50;46.60
25130;BME280;13308;50.860;13.664;2023-04-09T15:54:38;97596.44;;;17.83;47.09
25130;BME280;13308;50.860;13.664;2023-04-09T15:57:03;97597.47;;;17.23;49.47
25130;BME280;13308;50.860;13.664;2023-04-09T15:59:28;97591.69;;;16.89;49.43
25130;BME280;13308;50.860;13.664;2023-04-09T16:01:54;97594.75;;;17.07;50.15
25130;BME280;13308;50.860;13.664;2023-04-09T16:04:19;97585.38;;;17.55;48.61
25130;BME280;13308;50.860;13.664;2023-04-09T16:06:44;97589.34;;;17.29;49.08
25130;BME280;13308;50.860;13.664;2023-04-09T16:09:10;97584.16;;;17.15;49.20
25130;BME280;13308;50.860;13.664;2023-04-09T16:11:35;97587.03;;;16.70;48.42
25130;BME280;13308;50.860;13.664;2023-04-09T16:14:01;97588.50;;;17.16;48.03
25130;BME280;13308;50.860;13.664;2023-04-09T16:16:27;97584.50;;;16.76;48.19
25130;BME280;13308;50.860;13.664;2023-04-09T16:18:53;97581.47;;;16.70;48.59
25130;BME280;13308;50.860;13.664;2023-04-09T16:21:18;97569.66;;;16.66;48.48
25130;BME280;13308;50.860;13.664;2023-04-09T16:23:43;97580.31;;;16.55;48.65
25130;BME280;13308;50.860;13.664;2023-04-09T16:26:09;97585.31;;;16.60;48.66
25130;BME280;13308;50.860;13.664;2023-04-09T16:28:34;97589.84;;;16.54;48.74
25130;BME280;13308;50.860;13.664;2023-04-09T16:31:00;97585.03;;;16.10;48.62
25130;BME280;13308;50.860;13.664;2023-04-09T16:33:25;97582.56;;;15.64;50.49
25130;BME280;13308;50.860;13.664;2023-04-09T16:35:50;97583.03;;;15.08;51.29
25130;BME280;13308;50.860;13.664;2023-04-09T16:38:16;97572.84;;;14.62;52.50
25130;BME280;13308;50.860;13.664;2023-04-09T16:40:42;97575.88;;;14.29;53.17
25130;BME280;13308;50.860;13.664;2023-04-09T16:43:07;97571.59;;;14.24;53.18
25130;BME280;13308;50.860;13.664;2023-04-09T16:45:32;97575.13;;;13.79;53.92
25130;BME280;13308;50.860;13.664;2023-04-09T16:47:58;97575.63;;;13.47;55.15
25130;BME280;13308;50.860;13.664;2023-04-09T16:50:23;97575.09;;;13.29;54.82
25130;BME280;13308;50.860;13.664;2023-04-09T16:52:49;97572.94;;;13.14;55.55
25130;BME280;13308;50.860;13.664;2023-04-09T16:55:14;97576.09;;;12.82;56.42
25130;BME280;13308;50.860;13.664;2023-04-09T16:57:40;97581.50;;;12.59;56.97
25130;BME280;13308;50.860;13.664;2023-04-09T17:00:06;97577.03;;;12.35;58.65
25130;BME280;13308;50.860;13.664;2023-04-09T17:02:32;97576.34;;;12.24;58.49
25130;BME280;13308;50.860;13.664;2023-04-09T17:04:58;97578.53;;;12.03;58.82
25130;BME280;13308;50.860;13.664;2023-04-09T17:07:23;97575.13;;;11.88;59.52
25130;BME280;13308;50.860;13.664;2023-04-09T17:09:48;97574.38;;;11.84;60.03
25130;BME280;13308;50.860;13.664;2023-04-09T17:12:14;97579.94;;;11.77;60.85
25130;BME280;13308;50.860;13.664;2023-04-09T17:14:39;97577.66;;;11.72;60.55
25130;BME280;13308;50.860;13.664;2023-04-09T17:17:09;97586.31;;;11.74;60.21
25130;BME280;13308;50.860;13.664;2023-04-09T17:19:34;97583.66;;;11.53;62.39
25130;BME280;13308;50.860;13.664;2023-04-09T17:22:00;97585.63;;;11.56;60.53
25130;BME280;13308;50.860;13.664;2023-04-09T17:24:26;97588.00;;;11.54;60.21
25130;BME280;13308;50.860;13.664;2023-04-09T17:26:52;97582.50;;;11.47;60.88
25130;BME280;13308;50.860;13.664;2023-04-09T17:29:17;97586.47;;;11.46;59.67
25130;BME280;13308;50.860;13.664;2023-04-09T17:31:43;97583.75;;;11.43;59.99
25130;BME280;13308;50.860;13.664;2023-04-09T17:34:08;97581.06;;;11.32;61.20
25130;BME280;13308;50.860;13.664;2023-04-09T17:36:35;97583.88;;;11.18;61.62
25130;BME280;13308;50.860;13.664;2023-04-09T17:39:00;97582.00;;;11.08;61.52